createdAt,value
2022-09-22T00:02:02.884Z,3.47
2022-09-22T00:04:30.022Z,3.72
2022-09-22T00:06:57.440Z,3.75
2022-09-22T00:09:24.503Z,4.18
2022-09-22T00:11:54.438Z,7.47
2022-09-22T00:14:23.209Z,5.70
2022-09-22T00:16:52.826Z,3.95
2022-09-22T00:19:24.381Z,3.33
2022-09-22T00:21:51.857Z,4.20
2022-09-22T00:24:19.753Z,6.07
2022-09-22T00:26:46.930Z,9.88
2022-09-22T00:29:14.454Z,4.03
2022-09-22T00:31:42.723Z,3.13
2022-09-22T00:34:14.227Z,4.80
2022-09-22T00:36:41.335Z,3.13
2022-09-22T00:39:08.505Z,4.53
2022-09-22T00:41:40.563Z,5.93
2022-09-22T00:44:29.808Z,4.97
2022-09-22T00:47:16.166Z,4.18
2022-09-22T00:49:46.000Z,2.78
2022-09-22T00:52:14.347Z,3.42
2022-09-22T00:54:41.490Z,3.40
2022-09-22T00:57:15.422Z,5.03
2022-09-22T00:59:43.602Z,3.38
2022-09-22T01:02:11.518Z,5.78
2022-09-22T01:04:39.172Z,4.50
2022-09-22T01:07:06.617Z,4.13
2022-09-22T01:09:33.701Z,6.75
2022-09-22T01:12:02.040Z,3.10
2022-09-22T01:14:42.332Z,3.67
2022-09-22T01:17:28.246Z,4.18
2022-09-22T01:20:01.645Z,5.93
2022-09-22T01:22:40.886Z,2.75
2022-09-22T01:25:07.933Z,4.78
2022-09-22T01:28:02.268Z,3.83
2022-09-22T01:30:29.313Z,2.97
2022-09-22T01:33:02.435Z,4.05
2022-09-22T01:35:48.277Z,3.38
2022-09-22T01:38:19.653Z,6.45
2022-09-22T01:40:53.138Z,4.55
2022-09-22T01:43:32.576Z,3.47
2022-09-22T01:46:00.750Z,4.07
2022-09-22T01:48:30.863Z,3.53
2022-09-22T01:50:59.678Z,3.42
2022-09-22T01:53:30.506Z,6.03
2022-09-22T01:56:01.184Z,4.20
2022-09-22T01:58:34.438Z,4.80
2022-09-22T02:01:10.948Z,3.42
2022-09-22T02:03:46.777Z,3.95
2022-09-22T02:06:26.042Z,3.33
2022-09-22T02:08:58.864Z,3.50
2022-09-22T02:11:26.112Z,3.42
2022-09-22T02:13:53.480Z,3.22
2022-09-22T02:16:22.858Z,3.92
2022-09-22T02:18:55.961Z,2.80
2022-09-22T02:21:25.315Z,3.30
2022-09-22T02:23:52.500Z,3.72
2022-09-22T02:26:24.704Z,4.00
2022-09-22T02:28:54.269Z,4.15
2022-09-22T02:31:22.708Z,3.40
2022-09-22T02:33:51.855Z,3.70
2022-09-22T02:36:18.893Z,4.78
2022-09-22T02:38:53.814Z,4.10
2022-09-22T02:41:27.119Z,3.92
2022-09-22T02:44:01.128Z,3.42
2022-09-22T02:46:32.997Z,4.97
2022-09-22T02:49:03.145Z,6.17
2022-09-22T02:51:31.536Z,4.43
2022-09-22T02:53:58.618Z,4.78
2022-09-22T02:56:25.720Z,3.97
2022-09-22T02:58:56.363Z,4.20
2022-09-22T03:01:25.727Z,4.10
2022-09-22T03:03:52.905Z,3.20
2022-09-22T03:06:20.102Z,3.92
2022-09-22T03:08:47.165Z,3.47
2022-09-22T03:11:14.229Z,4.88
2022-09-22T03:13:41.288Z,6.75
2022-09-22T03:16:09.253Z,4.28
2022-09-22T03:18:36.470Z,5.10
2022-09-22T03:21:03.587Z,3.72
2022-09-22T03:23:30.727Z,5.00
2022-09-22T03:25:57.878Z,5.03
2022-09-22T03:28:24.974Z,6.15
2022-09-22T03:30:52.131Z,5.68
2022-09-22T03:33:19.281Z,9.82
2022-09-22T03:35:46.352Z,10.20
2022-09-22T03:38:13.432Z,8.10
2022-09-22T03:40:41.481Z,9.77
2022-09-22T03:43:10.967Z,9.55
2022-09-22T03:45:41.529Z,8.60
2022-09-22T03:48:08.648Z,9.23
2022-09-22T03:50:35.736Z,7.38
2022-09-22T03:53:02.837Z,7.45
2022-09-22T03:55:29.944Z,9.43
2022-09-22T03:57:57.198Z,7.65
2022-09-22T04:00:24.263Z,9.40
2022-09-22T04:02:51.437Z,7.00
2022-09-22T04:05:18.814Z,7.68
2022-09-22T04:07:45.907Z,7.25
2022-09-22T04:10:13.380Z,6.68
2022-09-22T04:12:40.495Z,6.50
2022-09-22T04:15:07.810Z,5.88
2022-09-22T04:17:35.518Z,9.88
2022-09-22T04:20:02.754Z,8.00
2022-09-22T04:22:30.247Z,9.25
2022-09-22T04:24:57.499Z,8.00
2022-09-22T04:27:25.049Z,8.05
2022-09-22T04:29:52.390Z,9.60
2022-09-22T04:32:19.565Z,11.82
2022-09-22T04:34:47.759Z,8.27
2022-09-22T04:37:14.812Z,8.93
2022-09-22T04:39:42.166Z,8.75
2022-09-22T04:42:09.485Z,18.52
2022-09-22T04:44:36.609Z,9.70
2022-09-22T04:47:04.143Z,8.27
2022-09-22T04:49:31.317Z,9.20
2022-09-22T04:51:58.951Z,8.77
2022-09-22T04:54:26.125Z,10.02
2022-09-22T04:56:53.231Z,8.35
2022-09-22T04:59:20.295Z,6.25
2022-09-22T05:01:47.461Z,8.15
2022-09-22T05:04:14.620Z,6.15
2022-09-22T05:06:42.142Z,8.40
2022-09-22T05:09:09.236Z,8.02
2022-09-22T05:11:36.563Z,4.95
2022-09-22T05:14:03.663Z,6.97
2022-09-22T05:16:31.278Z,6.82
2022-09-22T05:18:58.812Z,9.20
2022-09-22T05:21:26.132Z,9.40
2022-09-22T05:23:54.182Z,6.95
2022-09-22T05:26:21.281Z,6.85
2022-09-22T05:28:49.583Z,8.68
2022-09-22T05:31:16.857Z,9.93
2022-09-22T05:33:43.969Z,10.20
2022-09-22T05:36:11.082Z,8.60
2022-09-22T05:38:38.209Z,10.35
2022-09-22T05:41:05.345Z,8.52
2022-09-22T05:43:32.451Z,5.47
2022-09-22T05:45:59.642Z,6.45
2022-09-22T05:48:31.028Z,4.57
2022-09-22T05:50:58.895Z,5.83
2022-09-22T05:53:26.018Z,4.25
2022-09-22T05:55:53.152Z,4.95
2022-09-22T05:58:20.773Z,3.17
2022-09-22T06:00:48.042Z,4.38
2022-09-22T06:03:15.235Z,3.05
2022-09-22T06:05:42.627Z,3.03
2022-09-22T06:08:09.790Z,3.25
2022-09-22T06:10:37.945Z,3.83
2022-09-22T06:13:05.984Z,3.45
2022-09-22T06:15:37.618Z,4.68
2022-09-22T06:18:07.063Z,4.22
2022-09-22T06:20:34.615Z,2.95
2022-09-22T06:23:01.685Z,5.97
2022-09-22T06:25:29.583Z,5.38
2022-09-22T06:28:04.865Z,2.00
2022-09-22T06:30:32.685Z,1.88
2022-09-22T06:32:59.964Z,3.80
2022-09-22T06:35:32.347Z,3.67
2022-09-22T06:37:59.529Z,4.65
2022-09-22T06:40:26.927Z,3.53
2022-09-22T06:42:57.923Z,5.80
2022-09-22T06:45:26.854Z,3.45
2022-09-22T06:48:07.518Z,3.15
2022-09-22T06:50:37.640Z,5.95
2022-09-22T06:53:07.137Z,4.57
2022-09-22T06:55:35.583Z,3.13
2022-09-22T06:58:02.963Z,2.45
2022-09-22T07:00:32.882Z,2.28
2022-09-22T07:03:11.461Z,5.18
2022-09-22T07:05:38.504Z,5.28
2022-09-22T07:08:06.071Z,3.33
2022-09-22T07:10:37.831Z,2.03
2022-09-22T07:13:05.941Z,4.60
2022-09-22T07:15:35.510Z,2.33
2022-09-22T07:18:03.002Z,3.88
2022-09-22T07:20:30.410Z,2.47
2022-09-22T07:23:00.366Z,3.65
2022-09-22T07:25:35.838Z,3.28
2022-09-22T07:28:05.759Z,3.22
2022-09-22T07:30:32.961Z,4.50
2022-09-22T07:33:01.182Z,2.65
2022-09-22T07:35:28.718Z,3.20
2022-09-22T07:38:03.577Z,5.32
2022-09-22T07:40:31.034Z,2.10
2022-09-22T07:42:58.217Z,2.42
2022-09-22T07:45:25.283Z,4.35
2022-09-22T07:48:10.929Z,3.15
2022-09-22T07:50:38.029Z,3.22
2022-09-22T07:53:05.177Z,4.10
2022-09-22T07:55:34.639Z,3.13
2022-09-22T07:58:01.904Z,2.10
2022-09-22T08:00:33.605Z,3.13
2022-09-22T08:03:01.320Z,4.68
2022-09-22T08:05:29.767Z,4.35
2022-09-22T08:08:02.279Z,3.40
2022-09-22T08:10:29.346Z,3.60
2022-09-22T08:12:57.756Z,5.82
2022-09-22T08:15:27.377Z,2.92
2022-09-22T08:17:58.206Z,3.80
2022-09-22T08:20:30.067Z,2.58
2022-09-22T08:23:04.980Z,2.70
2022-09-22T08:25:32.377Z,2.08
2022-09-22T08:28:01.733Z,1.27
2022-09-22T08:30:28.838Z,2.08
2022-09-22T08:32:56.226Z,2.70
2022-09-22T08:35:23.378Z,2.08
2022-09-22T08:37:50.707Z,3.47
2022-09-22T08:40:21.053Z,1.40
2022-09-22T08:42:48.479Z,2.63
2022-09-22T08:45:19.927Z,1.30
2022-09-22T08:48:10.185Z,1.20
2022-09-22T08:51:09.716Z,1.50
2022-09-22T08:53:42.956Z,0.93
2022-09-22T08:56:30.404Z,1.50
2022-09-22T08:58:58.399Z,0.93
2022-09-22T09:01:43.851Z,0.70
2022-09-22T09:04:29.385Z,1.13
2022-09-22T09:06:56.437Z,2.00
2022-09-22T09:09:40.779Z,2.60
2022-09-22T09:12:10.645Z,2.22
2022-09-22T09:14:56.394Z,3.72
2022-09-22T09:17:31.513Z,3.78
2022-09-22T09:20:02.598Z,4.88
2022-09-22T09:22:43.659Z,2.00
2022-09-22T09:25:24.164Z,1.50
2022-09-22T09:27:55.175Z,1.10
2022-09-22T09:30:22.685Z,0.98
2022-09-22T09:32:52.096Z,1.20
2022-09-22T09:35:26.645Z,3.83
2022-09-22T09:38:01.175Z,1.45
2022-09-22T09:40:28.481Z,1.58
2022-09-22T09:43:03.586Z,2.03
2022-09-22T09:45:51.669Z,1.15
2022-09-22T09:48:48.122Z,1.73
2022-09-22T09:51:15.405Z,1.17
2022-09-22T09:53:46.350Z,1.88
2022-09-22T09:56:26.781Z,3.47
2022-09-22T09:59:18.563Z,2.05
2022-09-22T10:01:47.143Z,1.10
2022-09-22T10:04:23.403Z,1.00
2022-09-22T10:06:50.709Z,1.00
2022-09-22T10:09:25.240Z,0.98
2022-09-22T10:12:02.086Z,2.75
2022-09-22T10:14:33.096Z,1.30
2022-09-22T10:17:00.568Z,2.65
2022-09-22T10:19:31.926Z,2.42
2022-09-22T10:22:17.501Z,4.10
2022-09-22T10:25:01.785Z,1.85
2022-09-22T10:27:30.184Z,1.55
2022-09-22T10:30:12.827Z,2.67
2022-09-22T10:32:40.550Z,1.10
2022-09-22T10:35:26.608Z,1.52
2022-09-22T10:37:56.898Z,1.80
2022-09-22T10:40:24.804Z,2.60
2022-09-22T10:42:52.613Z,1.65
2022-09-22T10:45:20.882Z,2.65
2022-09-22T10:47:58.142Z,2.58
2022-09-22T10:50:25.318Z,3.63
2022-09-22T10:53:07.510Z,1.42
2022-09-22T10:55:36.502Z,3.07
2022-09-22T10:58:09.255Z,2.70
2022-09-22T11:03:06.191Z,1.10
2022-09-22T11:06:10.865Z,2.25
2022-09-22T11:09:19.031Z,1.55
2022-09-22T11:12:10.328Z,3.15
2022-09-22T11:14:37.819Z,2.20
2022-09-22T11:17:14.118Z,1.23
2022-09-22T11:19:59.831Z,2.08
2022-09-22T11:22:47.065Z,1.40
2022-09-22T11:25:14.099Z,1.38
2022-09-22T11:27:59.068Z,0.95
2022-09-22T11:30:26.197Z,1.85
2022-09-22T11:32:56.353Z,3.00
2022-09-22T11:35:23.510Z,1.73
2022-09-22T11:38:02.222Z,1.27
2022-09-22T11:40:48.634Z,1.15
2022-09-22T11:43:27.873Z,2.70
2022-09-22T11:46:22.284Z,2.00
2022-09-22T11:49:01.764Z,1.60
2022-09-22T11:51:28.840Z,1.25
2022-09-22T11:54:08.125Z,1.08
2022-09-22T11:56:43.556Z,1.60
2022-09-22T11:59:31.994Z,1.98
2022-09-22T12:02:04.571Z,2.03
2022-09-22T12:07:00.306Z,1.10
2022-09-22T12:09:36.754Z,1.30
2022-09-22T12:12:05.615Z,2.67
2022-09-22T12:14:32.923Z,1.88
2022-09-22T12:17:03.162Z,2.85
2022-09-22T12:19:36.168Z,1.73
2022-09-22T12:22:19.377Z,2.33
2022-09-22T12:24:47.321Z,3.70
2022-09-22T12:27:27.438Z,2.08
2022-09-22T12:29:55.637Z,1.27
2022-09-22T12:32:24.926Z,1.85
2022-09-22T12:34:52.468Z,2.10
2022-09-22T12:37:29.519Z,1.92
2022-09-22T12:39:58.087Z,2.33
2022-09-22T12:42:28.349Z,2.97
2022-09-22T12:44:58.041Z,1.60
2022-09-22T12:47:32.165Z,1.98
2022-09-22T12:50:00.008Z,2.15
2022-09-22T12:52:39.179Z,1.92
2022-09-22T12:55:21.871Z,1.10
2022-09-22T12:57:50.355Z,1.27
2022-09-22T13:00:23.136Z,0.95
2022-09-22T13:05:26.553Z,2.05
2022-09-22T13:07:54.317Z,2.35
2022-09-22T13:10:27.313Z,2.65
2022-09-22T13:13:03.471Z,1.35
2022-09-22T13:15:36.462Z,0.70
2022-09-22T13:18:03.551Z,1.13
2022-09-22T13:20:32.678Z,1.52
2022-09-22T13:23:06.360Z,1.52
2022-09-22T13:25:33.436Z,1.05
2022-09-22T13:28:04.851Z,2.47
2022-09-22T13:30:32.254Z,1.67
2022-09-22T13:32:59.638Z,2.50
2022-09-22T13:35:28.002Z,1.55
2022-09-22T13:37:56.226Z,2.65
2022-09-22T13:40:25.841Z,2.00
2022-09-22T13:42:54.309Z,0.93
2022-09-22T13:45:26.019Z,2.58
2022-09-22T13:47:55.662Z,1.90
2022-09-22T13:50:23.170Z,1.73
2022-09-22T13:52:51.270Z,1.10
2022-09-22T13:55:21.324Z,2.40
2022-09-22T13:57:48.839Z,1.13
2022-09-22T14:00:27.078Z,1.30
2022-09-22T14:02:56.787Z,4.85
2022-09-22T14:05:35.044Z,2.20
2022-09-22T14:08:13.642Z,1.48
2022-09-22T14:10:44.460Z,1.52
2022-09-22T14:13:30.684Z,1.85
2022-09-22T14:15:57.839Z,2.00
2022-09-22T14:18:27.045Z,1.35
2022-09-22T14:20:55.749Z,2.22
2022-09-22T14:23:32.974Z,1.48
2022-09-22T14:26:01.855Z,2.47
2022-09-22T14:28:30.129Z,1.42
2022-09-22T14:30:57.245Z,2.75
2022-09-22T14:33:30.574Z,2.15
2022-09-22T14:36:06.475Z,2.40
2022-09-22T14:38:41.956Z,1.67
2022-09-22T14:41:27.155Z,1.42
2022-09-22T14:43:54.575Z,2.88
2022-09-22T14:46:33.714Z,1.70
2022-09-22T14:49:19.433Z,1.27
2022-09-22T14:51:48.020Z,3.85
2022-09-22T14:54:16.011Z,1.58
2022-09-22T14:56:44.019Z,1.70
2022-09-22T14:59:35.375Z,2.10
2022-09-22T15:02:21.308Z,2.58
2022-09-22T15:04:52.776Z,1.40
2022-09-22T15:07:40.168Z,1.30
2022-09-22T15:10:27.818Z,2.10
2022-09-22T15:12:56.094Z,1.65
2022-09-22T15:15:25.937Z,1.42
2022-09-22T15:18:15.619Z,1.70
2022-09-22T15:20:46.990Z,1.42
2022-09-22T15:23:16.956Z,1.55
2022-09-22T15:25:44.750Z,1.88
2022-09-22T15:28:12.314Z,2.88
2022-09-22T15:30:39.765Z,2.88
2022-09-22T15:33:09.965Z,1.23
2022-09-22T15:35:37.938Z,1.40
2022-09-22T15:38:06.779Z,3.95
2022-09-22T15:40:33.877Z,1.40
2022-09-22T15:43:12.665Z,5.45
2022-09-22T15:45:48.911Z,3.42
2022-09-22T15:48:24.439Z,1.10
2022-09-22T15:50:51.816Z,1.20
2022-09-22T15:53:19.059Z,1.70
2022-09-22T15:55:47.874Z,1.85
2022-09-22T15:58:16.089Z,5.45
2022-09-22T16:00:43.213Z,2.15
2022-09-22T16:03:25.161Z,2.88
2022-09-22T16:05:57.301Z,3.58
2022-09-22T16:08:28.402Z,2.22
2022-09-22T16:10:56.518Z,1.98
2022-09-22T16:13:23.882Z,3.10
2022-09-22T16:15:51.467Z,4.72
2022-09-22T16:18:18.618Z,4.13
2022-09-22T16:20:47.022Z,4.10
2022-09-22T16:23:14.746Z,2.55
2022-09-22T16:25:42.725Z,7.15
2022-09-22T16:28:10.608Z,4.25
2022-09-22T16:30:38.158Z,3.00
2022-09-22T16:33:05.781Z,3.28
2022-09-22T16:35:32.858Z,4.93
2022-09-22T16:37:59.933Z,1.55
2022-09-22T16:40:29.651Z,3.20
2022-09-22T16:42:56.800Z,3.97
2022-09-22T16:45:43.871Z,3.08
2022-09-22T16:48:11.014Z,3.05
2022-09-22T16:50:38.093Z,3.92
2022-09-22T16:53:06.688Z,6.20
2022-09-22T16:55:37.302Z,2.03
2022-09-22T16:58:08.405Z,5.10
2022-09-22T17:00:36.296Z,5.38
2022-09-22T17:03:03.619Z,15.20
2022-09-22T17:05:32.726Z,33.78
2022-09-22T17:08:05.930Z,31.15
2022-09-22T17:10:35.518Z,20.25
2022-09-22T17:13:04.714Z,12.48
2022-09-22T17:15:35.836Z,11.95
2022-09-22T17:18:03.927Z,6.45
2022-09-22T17:20:31.066Z,5.28
2022-09-22T17:22:58.484Z,8.38
2022-09-22T17:25:28.977Z,5.05
2022-09-22T17:27:56.498Z,5.07
2022-09-22T17:30:23.634Z,2.60
2022-09-22T17:32:51.141Z,4.07
2022-09-22T17:35:18.277Z,4.50
2022-09-22T17:37:47.245Z,4.88
2022-09-22T17:40:14.456Z,5.75
2022-09-22T17:42:41.614Z,5.57
2022-09-22T17:45:09.241Z,3.10
2022-09-22T17:47:54.880Z,2.80
2022-09-22T17:50:40.897Z,3.33
2022-09-22T17:53:27.887Z,5.22
2022-09-22T17:55:55.114Z,5.78
2022-09-22T17:58:22.658Z,4.70
2022-09-22T18:00:50.781Z,4.72
2022-09-22T18:03:18.209Z,4.85
2022-09-22T18:05:52.437Z,3.97
2022-09-22T18:08:19.484Z,7.32
2022-09-22T18:10:46.835Z,5.90
2022-09-22T18:13:13.895Z,6.43
2022-09-22T18:15:41.179Z,5.53
2022-09-22T18:18:08.303Z,4.65
2022-09-22T18:20:35.421Z,5.78
2022-09-22T18:23:02.487Z,4.22
2022-09-22T18:25:30.130Z,4.80
2022-09-22T18:27:57.800Z,6.13
2022-09-22T18:30:25.456Z,4.97
2022-09-22T18:32:52.584Z,4.80
2022-09-22T18:35:20.069Z,6.70
2022-09-22T18:37:47.176Z,5.75
2022-09-22T18:40:16.051Z,7.32
2022-09-22T18:42:44.717Z,5.30
2022-09-22T18:45:12.374Z,3.65
2022-09-22T18:47:43.760Z,5.07
2022-09-22T18:50:11.805Z,3.50
2022-09-22T18:52:42.587Z,4.45
2022-09-22T18:55:10.115Z,6.22
2022-09-22T18:57:37.699Z,4.45
2022-09-22T19:00:04.977Z,6.80
2022-09-22T19:02:32.202Z,6.63
2022-09-22T19:04:59.320Z,6.47
2022-09-22T19:07:43.376Z,8.82
2022-09-22T19:10:12.118Z,8.73
2022-09-22T19:12:42.561Z,8.82
2022-09-22T19:15:13.605Z,8.15
2022-09-22T19:17:43.880Z,5.20
2022-09-22T19:20:14.705Z,6.85
2022-09-22T19:22:42.079Z,7.43
2022-09-22T19:25:09.373Z,7.38
2022-09-22T19:27:38.411Z,6.90
2022-09-22T19:30:05.679Z,4.63
2022-09-22T19:32:32.754Z,7.38
2022-09-22T19:34:59.856Z,8.68
2022-09-22T19:37:29.095Z,5.28
2022-09-22T19:39:56.631Z,6.75
2022-09-22T19:42:23.965Z,5.40
2022-09-22T19:44:51.061Z,5.32
2022-09-22T19:47:18.702Z,5.93
2022-09-22T19:49:45.769Z,13.32
2022-09-22T19:52:13.344Z,20.15
2022-09-22T19:54:40.706Z,13.63
2022-09-22T19:57:07.872Z,9.50
2022-09-22T19:59:35.235Z,9.15
2022-09-22T20:02:03.750Z,10.98
2022-09-22T20:04:35.078Z,8.45
2022-09-22T20:07:03.192Z,4.10
2022-09-22T20:09:30.438Z,3.97
2022-09-22T20:11:57.768Z,3.75
2022-09-22T20:14:27.042Z,5.65
2022-09-22T20:17:02.677Z,5.22
2022-09-22T20:19:34.351Z,8.60
2022-09-22T20:22:16.849Z,6.88
2022-09-22T20:24:44.025Z,5.78
2022-09-22T20:27:11.104Z,6.78
2022-09-22T20:29:38.225Z,4.80
2022-09-22T20:32:05.393Z,4.03
2022-09-22T20:34:32.484Z,5.38
2022-09-22T20:36:59.542Z,7.72
2022-09-22T20:39:26.673Z,5.78
2022-09-22T20:41:53.778Z,5.22
2022-09-22T20:44:20.808Z,4.00
2022-09-22T20:46:48.168Z,7.28
2022-09-22T20:49:15.673Z,12.00
2022-09-22T20:51:42.875Z,8.77
2022-09-22T20:54:10.209Z,8.23
2022-09-22T20:56:40.807Z,9.40
2022-09-22T20:59:10.130Z,10.77
2022-09-22T21:01:37.355Z,8.82
2022-09-22T21:04:04.875Z,11.40
2022-09-22T21:06:31.975Z,9.00
2022-09-22T21:09:17.757Z,7.30
2022-09-22T21:11:44.882Z,6.55
2022-09-22T21:14:11.974Z,9.95
2022-09-22T21:16:39.453Z,6.95
2022-09-22T21:19:07.507Z,9.35
2022-09-22T21:21:38.692Z,6.55
2022-09-22T21:24:06.306Z,7.53
2022-09-22T21:26:33.489Z,10.80
2022-09-22T21:29:00.752Z,8.82
2022-09-22T21:31:31.525Z,6.15
2022-09-22T21:33:58.677Z,5.93
2022-09-22T21:36:25.881Z,6.10
2022-09-22T21:38:57.622Z,3.88
2022-09-22T21:41:26.123Z,4.00
2022-09-22T21:43:53.460Z,3.97
2022-09-22T21:46:21.693Z,5.00
2022-09-22T21:48:49.058Z,5.53
2022-09-22T21:51:19.459Z,4.05
2022-09-22T21:53:48.369Z,5.18
2022-09-22T21:56:16.101Z,6.72
2022-09-22T21:58:44.693Z,10.05
2022-09-22T22:01:16.587Z,8.32
2022-09-22T22:03:44.497Z,5.67
2022-09-22T22:06:21.775Z,7.72
2022-09-22T22:08:48.819Z,11.43
2022-09-22T22:11:19.327Z,6.65
2022-09-22T22:13:47.025Z,7.53
2022-09-22T22:16:14.615Z,9.70
2022-09-22T22:18:42.053Z,7.38
2022-09-22T22:21:14.167Z,6.57
2022-09-22T22:23:45.658Z,7.72
2022-09-22T22:26:14.230Z,6.82
2022-09-22T22:28:42.072Z,11.57
2022-09-22T22:31:10.805Z,9.68
2022-09-22T22:33:39.738Z,6.88
2022-09-22T22:36:08.367Z,7.47
2022-09-22T22:38:36.555Z,6.57
2022-09-22T22:41:05.056Z,6.70
2022-09-22T22:43:32.641Z,6.00
2022-09-22T22:46:00.460Z,6.22
2022-09-22T22:48:28.169Z,8.90
2022-09-22T22:50:55.674Z,5.68
2022-09-22T22:53:23.370Z,5.65
2022-09-22T22:56:00.713Z,5.68
2022-09-22T22:58:29.613Z,6.97
2022-09-22T23:01:07.897Z,5.43
2022-09-22T23:03:34.978Z,5.50
2022-09-22T23:06:02.399Z,7.43
2022-09-22T23:08:30.022Z,6.88
2022-09-22T23:11:04.400Z,7.70
2022-09-22T23:13:32.240Z,8.93
2022-09-22T23:16:03.423Z,10.57
2022-09-22T23:18:31.530Z,9.18
2022-09-22T23:20:58.583Z,8.60
2022-09-22T23:23:25.698Z,9.95
2022-09-22T23:25:53.310Z,7.32
2022-09-22T23:28:20.623Z,7.88
2022-09-22T23:30:47.736Z,5.00
2022-09-22T23:33:15.237Z,5.38
2022-09-22T23:35:42.386Z,7.50
2022-09-22T23:38:11.320Z,6.70
2022-09-22T23:40:40.356Z,4.45
2022-09-22T23:43:07.480Z,6.13
2022-09-22T23:45:34.550Z,4.00
2022-09-22T23:48:01.675Z,3.83
2022-09-22T23:50:28.806Z,4.25
2022-09-22T23:52:55.949Z,4.20
2022-09-22T23:55:23.060Z,4.40
2022-09-22T23:57:50.379Z,3.72
